Pine Bluffs, WY (82082)

2:36 PM MDT on September 04, 2015 (GMT -0600)
Pine Bluffs Muni, Pine Bluffs | | Change Station
CLOSE
Current Station
Airport
Location: Pine Bluffs Muni, Pine Bluffs,
Elevation: 5151 ft
Nearby Weather Stations

Elev 5151 ft 41.15 °N, 104.13 °W | Updated 21 minutes ago

Clear
Clear
86 °F
Feels Like 86 °F
N
0
Wind Variable Wind from North

Today
High -- | Low -- °F
--% Chance of Precip.
Yesterday
High -- | Low -- °F
Precip. -- in
6:25 AM 7:24 PM
Waning Gibbous, 56% visible
Pressure 29.96 in
Visibility 10.0 miles
Clouds Mostly Cloudy 12000 ft
Dew Point 32 °F
Humidity 14%
Rainfall 0.00 in
Snow Depth Not available.
UV 5 out of 12
Pollen 9.90 out of 12
Air Quality Not available.
Flu Activity Not available.
METAR K82V 042015Z AUTO 00000KT 10SM BKN120 30/00 A2996 RMK AO2
Pressure 29.96 in
Visibility 10.0 miles
Clouds Mostly Cloudy 12000 ft
Dew Point 32 °F
Humidity 14%
Rainfall 0.00 in
Snow Depth Not available.
UV 5 out of 12
Pollen 9.90 out of 12
Air Quality Not available.
Flu Activity Not available.
METAR K82V 042015Z AUTO 00000KT 10SM BKN120 30/00 A2996 RMK AO2

10-Day Weather Forecast

×

Almanac

Astronomy

Sep. 04, 2015 Rise Set
Actual Time
Civil Twilight
Nautical Twilight
Astronomical Twilight
Moon
Length of Visible Light
Length of Day
Tomorrow will be .
, % of the Moon is Illuminated

Today's Extremes

State Highs State Lows

Community

WunderPhotos

Upload Photos

1,852,283 photos uploaded!

WunderBlogs® & News

Nearby

Air Quality

  Air Quality AQ Index Pollutant
Not available.

Snow Depth

Station Depth Elevation

Earthquake Activity

City Distance Mag. Time & Date
Minimum magnitude displayed is 2.5.

Coastal Water Temperatures

Place Temperature

Stations

Nearby Weather Stations

Station Location Temp. Windchill Dew Point Humidity Wind Precip. Elev Updated Type